PH-0049 weather

MERALCO Ortigas Heliport
Pasig, Philippines

Public forecast

Using degrees Celsius for public forecast. Weather courtesy of forecast.io.

METAR (pilot weather report)

Closest report is Ninoy Aquino International Airport, 5.8 nm (10.7 km) SSW. Retrieved 2019/09/16 03:00 UTC (30 minutes ago):

RPLL 160300Z 24010KT 9000 -RA BKN020 BKN090 27/25 Q1007 NOSIG RMK A2974

TAF (pilot weather forecast)

Forecast is more than 12 hours old.

Closest forecast is Ninoy Aquino International Airport, 5.8 nm (10.7 km) SSW. Retrieved 2019/09/15 00:00 UTC (1 day ago):

TAF RPLL 152300Z 1600/1706 24007KT 9999 SCT023 BKN090 TX29/1606Z TN24/1622Z TEMPO 1600/1606 25012KT 6000 -RA SCT020 OVC090 TEMPO 1606/1612 23012KT 5000 TSRA FEW018CB SCT020 OVC080